sensor_id;sensor_type;location;lat;lon;timestamp;temperature;humidity
7129;DHT22;3606;52.930;8.644;2023-05-07T00:01:48;10.40;58.90
7129;DHT22;3606;52.930;8.644;2023-05-07T00:04:14;10.40;70.60
7129;DHT22;3606;52.930;8.644;2023-05-07T00:06:39;10.40;58.00
7129;DHT22;3606;52.930;8.644;2023-05-07T00:09:06;10.30;26.30
7129;DHT22;3606;52.930;8.644;2023-05-07T00:11:32;10.30;20.50
7129;DHT22;3606;52.930;8.644;2023-05-07T00:13:58;10.30;55.30
7129;DHT22;3606;52.930;8.644;2023-05-07T00:16:24;10.30;40.40
7129;DHT22;3606;52.930;8.644;2023-05-07T00:18:50;10.30;78.80
7129;DHT22;3606;52.930;8.644;2023-05-07T00:21:15;10.30;33.30
7129;DHT22;3606;52.930;8.644;2023-05-07T00:23:41;10.30;76.00
7129;DHT22;3606;52.930;8.644;2023-05-07T00:26:06;10.30;47.20
7129;DHT22;3606;52.930;8.644;2023-05-07T00:28:32;10.30;54.20
7129;DHT22;3606;52.930;8.644;2023-05-07T00:30:58;10.30;76.90
7129;DHT22;3606;52.930;8.644;2023-05-07T00:33:23;10.30;96.00
7129;DHT22;3606;52.930;8.644;2023-05-07T00:35:49;10.30;40.00
7129;DHT22;3606;52.930;8.644;2023-05-07T00:38:15;10.40;51.60
7129;DHT22;3606;52.930;8.644;2023-05-07T00:40:41;10.40;72.20
7129;DHT22;3606;52.930;8.644;2023-05-07T00:43:06;10.30;30.10
7129;DHT22;3606;52.930;8.644;2023-05-07T00:45:33;10.30;61.80
7129;DHT22;3606;52.930;8.644;2023-05-07T00:48:02;10.30;40.40
7129;DHT22;3606;52.930;8.644;2023-05-07T00:50:29;10.30;73.00
7129;DHT22;3606;52.930;8.644;2023-05-07T00:52:55;10.30;96.20
7129;DHT22;3606;52.930;8.644;2023-05-07T00:55:22;10.30;82.70
7129;DHT22;3606;52.930;8.644;2023-05-07T00:57:49;10.30;66.50
7129;DHT22;3606;52.930;8.644;2023-05-07T01:00:15;10.30;64.50
7129;DHT22;3606;52.930;8.644;2023-05-07T01:02:41;10.20;95.60
7129;DHT22;3606;52.930;8.644;2023-05-07T01:05:09;10.30;99.90
7129;DHT22;3606;52.930;8.644;2023-05-07T01:07:35;10.20;49.50
7129;DHT22;3606;52.930;8.644;2023-05-07T01:10:03;10.20;36.20
7129;DHT22;3606;52.930;8.644;2023-05-07T01:12:30;10.10;24.20
7129;DHT22;3606;52.930;8.644;2023-05-07T01:14:56;10.10;29.30
7129;DHT22;3606;52.930;8.644;2023-05-07T01:17:22;10.10;4.00
7129;DHT22;3606;52.930;8.644;2023-05-07T01:19:48;10.00;17.20
7129;DHT22;3606;52.930;8.644;2023-05-07T01:22:15;10.00;65.60
7129;DHT22;3606;52.930;8.644;2023-05-07T01:24:42;10.00;48.70
7129;DHT22;3606;52.930;8.644;2023-05-07T01:27:08;10.00;66.00
7129;DHT22;3606;52.930;8.644;2023-05-07T01:29:34;9.90;58.00
7129;DHT22;3606;52.930;8.644;2023-05-07T01:32:00;9.90;50.00
7129;DHT22;3606;52.930;8.644;2023-05-07T01:34:32;9.90;79.50
7129;DHT22;3606;52.930;8.644;2023-05-07T01:36:58;9.90;99.90
7129;DHT22;3606;52.930;8.644;2023-05-07T01:39:25;9.90;99.90
7129;DHT22;3606;52.930;8.644;2023-05-07T01:41:56;10.00;92.90
7129;DHT22;3606;52.930;8.644;2023-05-07T01:44:22;9.90;85.00
7129;DHT22;3606;52.930;8.644;2023-05-07T01:46:48;9.90;74.80
7129;DHT22;3606;52.930;8.644;2023-05-07T01:49:15;9.80;83.00
7129;DHT22;3606;52.930;8.644;2023-05-07T01:51:41;9.80;98.10
7129;DHT22;3606;52.930;8.644;2023-05-07T01:54:07;9.80;99.90
7129;DHT22;3606;52.930;8.644;2023-05-07T01:56:33;9.80;99.90
7129;DHT22;3606;52.930;8.644;2023-05-07T01:58:59;9.80;99.90
7129;DHT22;3606;52.930;8.644;2023-05-07T02:01:24;9.80;99.90
7129;DHT22;3606;52.930;8.644;2023-05-07T02:03:50;9.80;99.90
7129;DHT22;3606;52.930;8.644;2023-05-07T02:06:15;9.80;99.90
7129;DHT22;3606;52.930;8.644;2023-05-07T02:08:41;9.70;99.90
7129;DHT22;3606;52.930;8.644;2023-05-07T02:11:07;9.70;99.90
7129;DHT22;3606;52.930;8.644;2023-05-07T02:13:33;9.70;99.90
7129;DHT22;3606;52.930;8.644;2023-05-07T02:16:00;9.70;99.90
7129;DHT22;3606;52.930;8.644;2023-05-07T02:18:25;9.70;99.90
7129;DHT22;3606;52.930;8.644;2023-05-07T02:20:51;9.70;99.90
7129;DHT22;3606;52.930;8.644;2023-05-07T02:23:16;9.70;99.90
7129;DHT22;3606;52.930;8.644;2023-05-07T02:25:42;9.60;99.90
7129;DHT22;3606;52.930;8.644;2023-05-07T02:28:08;9.60;99.90
7129;DHT22;3606;52.930;8.644;2023-05-07T02:30:33;9.60;99.90
7129;DHT22;3606;52.930;8.644;2023-05-07T02:32:59;9.50;99.90
7129;DHT22;3606;52.930;8.644;2023-05-07T02:35:25;9.60;99.90
7129;DHT22;3606;52.930;8.644;2023-05-07T02:37:51;9.60;99.90
7129;DHT22;3606;52.930;8.644;2023-05-07T02:40:16;9.60;99.90
7129;DHT22;3606;52.930;8.644;2023-05-07T02:42:42;9.60;99.90
7129;DHT22;3606;52.930;8.644;2023-05-07T02:45:08;9.60;99.90
7129;DHT22;3606;52.930;8.644;2023-05-07T02:47:34;9.60;99.90
7129;DHT22;3606;52.930;8.644;2023-05-07T02:50:00;9.60;99.90
7129;DHT22;3606;52.930;8.644;2023-05-07T02:52:25;9.60;99.90
7129;DHT22;3606;52.930;8.644;2023-05-07T02:54:51;9.60;99.90
7129;DHT22;3606;52.930;8.644;2023-05-07T02:57:17;9.50;99.90
7129;DHT22;3606;52.930;8.644;2023-05-07T02:59:42;9.50;99.90
7129;DHT22;3606;52.930;8.644;2023-05-07T03:02:08;9.50;99.90
7129;DHT22;3606;52.930;8.644;2023-05-07T03:04:34;9.50;99.90
7129;DHT22;3606;52.930;8.644;2023-05-07T03:06:59;9.60;99.90
7129;DHT22;3606;52.930;8.644;2023-05-07T03:09:25;9.60;99.90
7129;DHT22;3606;52.930;8.644;2023-05-07T03:11:51;9.50;99.90
7129;DHT22;3606;52.930;8.644;2023-05-07T03:14:17;9.50;99.90
7129;DHT22;3606;52.930;8.644;2023-05-07T03:16:42;9.50;99.90
7129;DHT22;3606;52.930;8.644;2023-05-07T03:19:08;9.50;99.90
7129;DHT22;3606;52.930;8.644;2023-05-07T03:21:33;9.50;99.90
7129;DHT22;3606;52.930;8.644;2023-05-07T03:24:00;9.50;99.90
7129;DHT22;3606;52.930;8.644;2023-05-07T03:26:25;9.50;99.90
7129;DHT22;3606;52.930;8.644;2023-05-07T03:28:51;9.50;99.90
7129;DHT22;3606;52.930;8.644;2023-05-07T03:31:17;9.50;99.90
7129;DHT22;3606;52.930;8.644;2023-05-07T03:33:56;9.50;99.90
7129;DHT22;3606;52.930;8.644;2023-05-07T03:36:23;9.50;99.90
7129;DHT22;3606;52.930;8.644;2023-05-07T03:38:49;9.50;99.90
7129;DHT22;3606;52.930;8.644;2023-05-07T03:41:15;9.50;99.90
7129;DHT22;3606;52.930;8.644;2023-05-07T03:43:41;9.40;99.90
7129;DHT22;3606;52.930;8.644;2023-05-07T03:46:06;9.40;99.90
7129;DHT22;3606;52.930;8.644;2023-05-07T03:48:32;9.50;99.90
7129;DHT22;3606;52.930;8.644;2023-05-07T03:50:58;9.50;99.90
7129;DHT22;3606;52.930;8.644;2023-05-07T03:53:24;9.50;99.90
7129;DHT22;3606;52.930;8.644;2023-05-07T03:55:49;9.50;99.90
7129;DHT22;3606;52.930;8.644;2023-05-07T03:58:15;9.50;99.90
7129;DHT22;3606;52.930;8.644;2023-05-07T04:00:41;9.50;99.90
7129;DHT22;3606;52.930;8.644;2023-05-07T04:03:07;9.40;95.60
7129;DHT22;3606;52.930;8.644;2023-05-07T04:05:33;9.40;99.90
7129;DHT22;3606;52.930;8.644;2023-05-07T04:07:59;9.40;99.90
7129;DHT22;3606;52.930;8.644;2023-05-07T04:10:25;9.40;99.90
7129;DHT22;3606;52.930;8.644;2023-05-07T04:12:50;9.40;99.90
7129;DHT22;3606;52.930;8.644;2023-05-07T04:15:16;9.50;99.90
7129;DHT22;3606;52.930;8.644;2023-05-07T04:17:42;9.40;99.90
7129;DHT22;3606;52.930;8.644;2023-05-07T04:20:14;9.50;99.90
7129;DHT22;3606;52.930;8.644;2023-05-07T04:22:40;9.50;99.90
7129;DHT22;3606;52.930;8.644;2023-05-07T04:25:06;9.60;99.70
7129;DHT22;3606;52.930;8.644;2023-05-07T04:27:32;9.60;99.90
7129;DHT22;3606;52.930;8.644;2023-05-07T04:29:57;9.60;97.20
7129;DHT22;3606;52.930;8.644;2023-05-07T04:32:23;9.50;73.10
7129;DHT22;3606;52.930;8.644;2023-05-07T04:34:50;9.60;93.30
7129;DHT22;3606;52.930;8.644;2023-05-07T04:37:15;9.60;98.80
7129;DHT22;3606;52.930;8.644;2023-05-07T04:39:41;9.60;99.90
7129;DHT22;3606;52.930;8.644;2023-05-07T04:42:07;9.60;89.00
7129;DHT22;3606;52.930;8.644;2023-05-07T04:44:34;9.70;48.20
7129;DHT22;3606;52.930;8.644;2023-05-07T04:47:00;9.70;22.20
7129;DHT22;3606;52.930;8.644;2023-05-07T04:49:26;9.70;22.10
7129;DHT22;3606;52.930;8.644;2023-05-07T04:51:52;9.60;1.00
7129;DHT22;3606;52.930;8.644;2023-05-07T04:54:17;9.70;36.60
7129;DHT22;3606;52.930;8.644;2023-05-07T04:56:43;9.80;1.00
7129;DHT22;3606;52.930;8.644;2023-05-07T04:59:08;9.70;1.00
7129;DHT22;3606;52.930;8.644;2023-05-07T05:01:34;9.70;1.00
7129;DHT22;3606;52.930;8.644;2023-05-07T05:04:00;9.70;1.00
7129;DHT22;3606;52.930;8.644;2023-05-07T05:06:25;9.80;1.00
7129;DHT22;3606;52.930;8.644;2023-05-07T05:08:51;9.80;1.00
7129;DHT22;3606;52.930;8.644;2023-05-07T05:11:17;9.80;1.00
7129;DHT22;3606;52.930;8.644;2023-05-07T05:13:42;9.80;1.00
7129;DHT22;3606;52.930;8.644;2023-05-07T05:16:08;9.80;1.00
7129;DHT22;3606;52.930;8.644;2023-05-07T05:18:34;9.90;1.00
7129;DHT22;3606;52.930;8.644;2023-05-07T05:21:00;9.80;1.00
7129;DHT22;3606;52.930;8.644;2023-05-07T05:23:25;9.90;1.00
7129;DHT22;3606;52.930;8.644;2023-05-07T05:25:58;9.80;1.00
7129;DHT22;3606;52.930;8.644;2023-05-07T05:28:24;9.90;1.00
7129;DHT22;3606;52.930;8.644;2023-05-07T05:30:49;9.80;1.00
7129;DHT22;3606;52.930;8.644;2023-05-07T05:33:15;9.80;1.00
7129;DHT22;3606;52.930;8.644;2023-05-07T05:35:41;9.90;1.00
7129;DHT22;3606;52.930;8.644;2023-05-07T05:38:07;9.90;1.00
7129;DHT22;3606;52.930;8.644;2023-05-07T05:40:33;9.90;1.00
7129;DHT22;3606;52.930;8.644;2023-05-07T05:42:59;9.90;1.00
7129;DHT22;3606;52.930;8.644;2023-05-07T05:45:25;9.90;1.00
7129;DHT22;3606;52.930;8.644;2023-05-07T05:47:50;9.80;1.00
7129;DHT22;3606;52.930;8.644;2023-05-07T05:50:16;9.90;1.00
7129;DHT22;3606;52.930;8.644;2023-05-07T05:52:41;10.00;1.00
7129;DHT22;3606;52.930;8.644;2023-05-07T05:55:07;10.00;1.00
7129;DHT22;3606;52.930;8.644;2023-05-07T05:57:33;10.10;1.00
7129;DHT22;3606;52.930;8.644;2023-05-07T06:00:00;10.10;1.00
7129;DHT22;3606;52.930;8.644;2023-05-07T06:02:25;10.20;1.00
7129;DHT22;3606;52.930;8.644;2023-05-07T06:04:51;10.20;1.00
7129;DHT22;3606;52.930;8.644;2023-05-07T06:07:16;10.20;1.00
7129;DHT22;3606;52.930;8.644;2023-05-07T06:09:42;10.20;1.00
7129;DHT22;3606;52.930;8.644;2023-05-07T06:12:08;10.30;1.00
7129;DHT22;3606;52.930;8.644;2023-05-07T06:14:33;10.20;1.00
7129;DHT22;3606;52.930;8.644;2023-05-07T06:16:59;10.40;1.00
7129;DHT22;3606;52.930;8.644;2023-05-07T06:19:24;10.40;1.00
7129;DHT22;3606;52.930;8.644;2023-05-07T06:21:51;10.50;1.00
7129;DHT22;3606;52.930;8.644;2023-05-07T06:24:17;10.50;1.00
7129;DHT22;3606;52.930;8.644;2023-05-07T06:26:43;10.30;1.00
7129;DHT22;3606;52.930;8.644;2023-05-07T06:29:08;10.40;1.00
7129;DHT22;3606;52.930;8.644;2023-05-07T06:31:34;10.50;1.00
7129;DHT22;3606;52.930;8.644;2023-05-07T06:33:59;10.60;1.00
7129;DHT22;3606;52.930;8.644;2023-05-07T06:36:27;10.50;1.00
7129;DHT22;3606;52.930;8.644;2023-05-07T06:38:53;10.60;1.00
7129;DHT22;3606;52.930;8.644;2023-05-07T06:41:18;10.60;1.00
7129;DHT22;3606;52.930;8.644;2023-05-07T06:43:44;10.70;1.00
7129;DHT22;3606;52.930;8.644;2023-05-07T06:46:09;10.70;1.00
7129;DHT22;3606;52.930;8.644;2023-05-07T06:48:35;10.70;1.00
7129;DHT22;3606;52.930;8.644;2023-05-07T06:51:01;10.70;1.00
7129;DHT22;3606;52.930;8.644;2023-05-07T06:53:26;10.80;1.00
7129;DHT22;3606;52.930;8.644;2023-05-07T06:55:53;10.80;1.00
7129;DHT22;3606;52.930;8.644;2023-05-07T06:58:19;10.80;1.00
7129;DHT22;3606;52.930;8.644;2023-05-07T07:00:45;10.80;1.00
7129;DHT22;3606;52.930;8.644;2023-05-07T07:03:11;10.70;1.00
7129;DHT22;3606;52.930;8.644;2023-05-07T07:05:37;10.70;1.00
7129;DHT22;3606;52.930;8.644;2023-05-07T07:08:02;10.60;1.00
7129;DHT22;3606;52.930;8.644;2023-05-07T07:10:28;10.60;1.00
7129;DHT22;3606;52.930;8.644;2023-05-07T07:12:53;10.70;1.00
7129;DHT22;3606;52.930;8.644;2023-05-07T07:15:19;10.80;1.00
7129;DHT22;3606;52.930;8.644;2023-05-07T07:17:46;10.80;1.00
7129;DHT22;3606;52.930;8.644;2023-05-07T07:20:11;10.80;1.00
7129;DHT22;3606;52.930;8.644;2023-05-07T07:22:37;11.00;1.00
7129;DHT22;3606;52.930;8.644;2023-05-07T07:25:03;11.00;1.00
7129;DHT22;3606;52.930;8.644;2023-05-07T07:27:29;11.00;1.00
7129;DHT22;3606;52.930;8.644;2023-05-07T07:29:54;11.10;1.00
7129;DHT22;3606;52.930;8.644;2023-05-07T07:32:20;11.00;1.00
7129;DHT22;3606;52.930;8.644;2023-05-07T07:34:46;11.00;1.00
7129;DHT22;3606;52.930;8.644;2023-05-07T07:37:11;11.10;1.00
7129;DHT22;3606;52.930;8.644;2023-05-07T07:39:37;11.30;99.90
7129;DHT22;3606;52.930;8.644;2023-05-07T07:42:06;11.40;99.90
7129;DHT22;3606;52.930;8.644;2023-05-07T07:44:32;11.40;99.90
7129;DHT22;3606;52.930;8.644;2023-05-07T07:46:57;11.60;99.90
7129;DHT22;3606;52.930;8.644;2023-05-07T07:49:23;11.60;99.90
7129;DHT22;3606;52.930;8.644;2023-05-07T07:51:48;11.50;99.90
7129;DHT22;3606;52.930;8.644;2023-05-07T07:54:14;11.50;99.90
7129;DHT22;3606;52.930;8.644;2023-05-07T07:56:39;11.60;99.90
7129;DHT22;3606;52.930;8.644;2023-05-07T07:59:05;11.70;99.90
7129;DHT22;3606;52.930;8.644;2023-05-07T08:01:31;11.70;99.90
7129;DHT22;3606;52.930;8.644;2023-05-07T08:03:56;11.80;99.90
7129;DHT22;3606;52.930;8.644;2023-05-07T08:06:25;12.00;1.00
7129;DHT22;3606;52.930;8.644;2023-05-07T08:08:51;11.80;1.00
7129;DHT22;3606;52.930;8.644;2023-05-07T08:11:17;11.80;1.00
7129;DHT22;3606;52.930;8.644;2023-05-07T08:13:42;11.80;1.00
7129;DHT22;3606;52.930;8.644;2023-05-07T08:16:08;11.80;2.40
7129;DHT22;3606;52.930;8.644;2023-05-07T08:18:34;11.80;1.00
7129;DHT22;3606;52.930;8.644;2023-05-07T08:21:00;11.80;1.00
7129;DHT22;3606;52.930;8.644;2023-05-07T08:23:26;12.00;1.00
7129;DHT22;3606;52.930;8.644;2023-05-07T08:25:53;12.00;1.00
7129;DHT22;3606;52.930;8.644;2023-05-07T08:28:19;12.20;1.00
7129;DHT22;3606;52.930;8.644;2023-05-07T08:30:46;12.30;1.00
7129;DHT22;3606;52.930;8.644;2023-05-07T08:33:12;12.40;1.00
7129;DHT22;3606;52.930;8.644;2023-05-07T08:35:37;12.40;99.90
7129;DHT22;3606;52.930;8.644;2023-05-07T08:38:03;12.40;99.90
7129;DHT22;3606;52.930;8.644;2023-05-07T08:40:29;12.60;99.90
7129;DHT22;3606;52.930;8.644;2023-05-07T08:42:57;12.60;1.00
7129;DHT22;3606;52.930;8.644;2023-05-07T08:45:23;12.80;1.00
7129;DHT22;3606;52.930;8.644;2023-05-07T08:47:52;13.00;99.90
7129;DHT22;3606;52.930;8.644;2023-05-07T08:50:21;13.20;99.90
7129;DHT22;3606;52.930;8.644;2023-05-07T08:52:47;13.30;84.60
7129;DHT22;3606;52.930;8.644;2023-05-07T08:55:13;13.50;99.90
7129;DHT22;3606;52.930;8.644;2023-05-07T08:57:40;13.40;1.00
7129;DHT22;3606;52.930;8.644;2023-05-07T09:00:06;13.40;99.90
7129;DHT22;3606;52.930;8.644;2023-05-07T09:02:33;13.40;1.00
7129;DHT22;3606;52.930;8.644;2023-05-07T09:05:00;13.70;79.20
7129;DHT22;3606;52.930;8.644;2023-05-07T09:07:25;13.80;1.00
7129;DHT22;3606;52.930;8.644;2023-05-07T09:09:52;13.90;99.90
7129;DHT22;3606;52.930;8.644;2023-05-07T09:12:19;13.90;1.00
7129;DHT22;3606;52.930;8.644;2023-05-07T09:14:45;13.80;99.90
7129;DHT22;3606;52.930;8.644;2023-05-07T09:17:11;13.80;99.90
7129;DHT22;3606;52.930;8.644;2023-05-07T09:19:37;13.70;1.00
7129;DHT22;3606;52.930;8.644;2023-05-07T09:22:03;13.80;1.00
7129;DHT22;3606;52.930;8.644;2023-05-07T09:24:30;13.90;99.90
7129;DHT22;3606;52.930;8.644;2023-05-07T09:27:00;13.90;1.00
7129;DHT22;3606;52.930;8.644;2023-05-07T09:29:27;13.80;1.00
7129;DHT22;3606;52.930;8.644;2023-05-07T09:31:54;13.90;1.00
7129;DHT22;3606;52.930;8.644;2023-05-07T09:34:20;14.00;99.90
7129;DHT22;3606;52.930;8.644;2023-05-07T09:36:46;14.10;99.90
7129;DHT22;3606;52.930;8.644;2023-05-07T09:39:13;14.20;39.80
7129;DHT22;3606;52.930;8.644;2023-05-07T09:41:48;14.20;1.00
7129;DHT22;3606;52.930;8.644;2023-05-07T09:44:15;14.40;99.90
7129;DHT22;3606;52.930;8.644;2023-05-07T09:46:43;14.30;99.90
7129;DHT22;3606;52.930;8.644;2023-05-07T09:49:16;14.10;1.00
7129;DHT22;3606;52.930;8.644;2023-05-07T09:51:49;14.10;1.00
7129;DHT22;3606;52.930;8.644;2023-05-07T09:54:16;14.30;1.00
7129;DHT22;3606;52.930;8.644;2023-05-07T09:56:45;14.40;1.00
7129;DHT22;3606;52.930;8.644;2023-05-07T09:59:13;14.60;99.90
7129;DHT22;3606;52.930;8.644;2023-05-07T10:01:41;14.50;1.00
7129;DHT22;3606;52.930;8.644;2023-05-07T10:04:07;14.60;99.90
7129;DHT22;3606;52.930;8.644;2023-05-07T10:06:36;14.60;99.90
7129;DHT22;3606;52.930;8.644;2023-05-07T10:09:03;14.90;99.90
7129;DHT22;3606;52.930;8.644;2023-05-07T10:11:32;15.10;1.00
7129;DHT22;3606;52.930;8.644;2023-05-07T10:13:59;14.90;99.90
7129;DHT22;3606;52.930;8.644;2023-05-07T10:16:28;15.40;1.00
7129;DHT22;3606;52.930;8.644;2023-05-07T10:18:56;15.60;99.90
7129;DHT22;3606;52.930;8.644;2023-05-07T10:21:23;15.90;99.90
7129;DHT22;3606;52.930;8.644;2023-05-07T10:23:50;16.20;1.00
7129;DHT22;3606;52.930;8.644;2023-05-07T10:26:18;17.00;99.90
7129;DHT22;3606;52.930;8.644;2023-05-07T10:28:49;17.20;1.00
7129;DHT22;3606;52.930;8.644;2023-05-07T10:31:35;17.30;1.00
7129;DHT22;3606;52.930;8.644;2023-05-07T10:34:12;18.00;6.40
7129;DHT22;3606;52.930;8.644;2023-05-07T10:36:38;18.20;99.90
7129;DHT22;3606;52.930;8.644;2023-05-07T10:39:05;17.50;1.00
7129;DHT22;3606;52.930;8.644;2023-05-07T10:41:31;17.20;99.90
7129;DHT22;3606;52.930;8.644;2023-05-07T10:43:57;17.40;99.90
7129;DHT22;3606;52.930;8.644;2023-05-07T10:46:26;17.10;99.90
7129;DHT22;3606;52.930;8.644;2023-05-07T10:51:32;16.40;1.00
7129;DHT22;3606;52.930;8.644;2023-05-07T10:56:44;16.10;1.00
7129;DHT22;3606;52.930;8.644;2023-05-07T11:01:57;15.50;1.00
7129;DHT22;3606;52.930;8.644;2023-05-07T11:04:24;15.60;1.00
7129;DHT22;3606;52.930;8.644;2023-05-07T11:12:17;15.80;1.00
7129;DHT22;3606;52.930;8.644;2023-05-07T11:14:44;15.60;1.00
7129;DHT22;3606;52.930;8.644;2023-05-07T11:17:11;15.40;1.00
7129;DHT22;3606;52.930;8.644;2023-05-07T11:25:04;15.50;1.00
7129;DHT22;3606;52.930;8.644;2023-05-07T11:27:31;15.40;1.00
7129;DHT22;3606;52.930;8.644;2023-05-07T11:29:57;15.20;1.00
7129;DHT22;3606;52.930;8.644;2023-05-07T11:32:30;15.30;1.00
7129;DHT22;3606;52.930;8.644;2023-05-07T11:34:57;15.40;1.00
7129;DHT22;3606;52.930;8.644;2023-05-07T11:37:24;15.30;1.00
7129;DHT22;3606;52.930;8.644;2023-05-07T11:39:50;15.20;8.40
7129;DHT22;3606;52.930;8.644;2023-05-07T11:42:34;15.20;57.90
7129;DHT22;3606;52.930;8.644;2023-05-07T11:45:01;15.10;5.90
7129;DHT22;3606;52.930;8.644;2023-05-07T11:47:30;15.10;90.50
7129;DHT22;3606;52.930;8.644;2023-05-07T11:49:56;15.20;99.80
7129;DHT22;3606;52.930;8.644;2023-05-07T11:52:23;15.20;1.00
7129;DHT22;3606;52.930;8.644;2023-05-07T11:54:58;15.20;1.00
7129;DHT22;3606;52.930;8.644;2023-05-07T11:57:25;15.30;34.80
7129;DHT22;3606;52.930;8.644;2023-05-07T11:59:55;15.50;8.90
7129;DHT22;3606;52.930;8.644;2023-05-07T12:02:21;15.40;1.00
7129;DHT22;3606;52.930;8.644;2023-05-07T12:04:47;15.60;61.80
7129;DHT22;3606;52.930;8.644;2023-05-07T12:07:14;15.80;1.00
7129;DHT22;3606;52.930;8.644;2023-05-07T12:09:44;16.20;1.00
7129;DHT22;3606;52.930;8.644;2023-05-07T12:12:09;16.50;1.00
7129;DHT22;3606;52.930;8.644;2023-05-07T12:14:39;16.50;1.00
7129;DHT22;3606;52.930;8.644;2023-05-07T12:17:09;16.60;1.00
7129;DHT22;3606;52.930;8.644;2023-05-07T12:19:35;16.80;1.00
7129;DHT22;3606;52.930;8.644;2023-05-07T12:22:03;17.30;99.90
7129;DHT22;3606;52.930;8.644;2023-05-07T12:24:29;17.50;99.90
7129;DHT22;3606;52.930;8.644;2023-05-07T12:26:54;17.80;99.90
7129;DHT22;3606;52.930;8.644;2023-05-07T12:29:23;18.00;99.90
7129;DHT22;3606;52.930;8.644;2023-05-07T12:31:50;18.00;99.90
7129;DHT22;3606;52.930;8.644;2023-05-07T12:34:15;18.00;99.90
7129;DHT22;3606;52.930;8.644;2023-05-07T12:36:41;18.30;99.90
7129;DHT22;3606;52.930;8.644;2023-05-07T12:39:08;19.40;99.90
7129;DHT22;3606;52.930;8.644;2023-05-07T12:41:53;20.10;99.90
7129;DHT22;3606;52.930;8.644;2023-05-07T12:44:22;20.50;99.90
7129;DHT22;3606;52.930;8.644;2023-05-07T12:46:47;20.70;99.90
7129;DHT22;3606;52.930;8.644;2023-05-07T12:49:13;21.40;99.90
7129;DHT22;3606;52.930;8.644;2023-05-07T12:51:39;21.80;1.00
7129;DHT22;3606;52.930;8.644;2023-05-07T12:54:04;21.70;99.90
7129;DHT22;3606;52.930;8.644;2023-05-07T12:56:35;21.50;1.00
7129;DHT22;3606;52.930;8.644;2023-05-07T12:59:01;21.10;99.90
7129;DHT22;3606;52.930;8.644;2023-05-07T13:01:30;21.20;1.00
7129;DHT22;3606;52.930;8.644;2023-05-07T13:04:01;21.60;1.00
7129;DHT22;3606;52.930;8.644;2023-05-07T13:06:29;22.30;1.00
7129;DHT22;3606;52.930;8.644;2023-05-07T13:08:55;22.30;78.90
7129;DHT22;3606;52.930;8.644;2023-05-07T13:11:20;22.70;40.00
7129;DHT22;3606;52.930;8.644;2023-05-07T13:13:46;22.90;1.00
7129;DHT22;3606;52.930;8.644;2023-05-07T13:16:12;23.10;1.00
7129;DHT22;3606;52.930;8.644;2023-05-07T13:18:38;23.30;99.90
7129;DHT22;3606;52.930;8.644;2023-05-07T13:21:04;23.90;1.00
7129;DHT22;3606;52.930;8.644;2023-05-07T13:23:30;24.50;1.00
7129;DHT22;3606;52.930;8.644;2023-05-07T13:25:55;23.90;1.00
7129;DHT22;3606;52.930;8.644;2023-05-07T13:28:25;23.40;1.00
7129;DHT22;3606;52.930;8.644;2023-05-07T13:30:52;23.10;1.00
7129;DHT22;3606;52.930;8.644;2023-05-07T13:33:18;22.40;1.00
7129;DHT22;3606;52.930;8.644;2023-05-07T13:35:44;22.00;1.00
7129;DHT22;3606;52.930;8.644;2023-05-07T13:38:10;22.00;1.00
7129;DHT22;3606;52.930;8.644;2023-05-07T13:40:35;22.80;99.90
7129;DHT22;3606;52.930;8.644;2023-05-07T13:43:01;22.90;99.90
7129;DHT22;3606;52.930;8.644;2023-05-07T13:45:28;22.90;99.90
7129;DHT22;3606;52.930;8.644;2023-05-07T13:47:55;22.40;99.90
7129;DHT22;3606;52.930;8.644;2023-05-07T13:50:20;22.10;99.90
7129;DHT22;3606;52.930;8.644;2023-05-07T13:52:46;22.40;99.90
7129;DHT22;3606;52.930;8.644;2023-05-07T13:55:17;22.70;99.90
7129;DHT22;3606;52.930;8.644;2023-05-07T13:57:43;22.70;99.90
7129;DHT22;3606;52.930;8.644;2023-05-07T14:00:09;22.70;99.90
7129;DHT22;3606;52.930;8.644;2023-05-07T14:02:35;22.30;99.90
7129;DHT22;3606;52.930;8.644;2023-05-07T14:05:00;21.80;99.90
7129;DHT22;3606;52.930;8.644;2023-05-07T14:07:26;21.40;99.90
7129;DHT22;3606;52.930;8.644;2023-05-07T14:09:51;21.70;57.50
7129;DHT22;3606;52.930;8.644;2023-05-07T14:12:17;21.90;1.00
7129;DHT22;3606;52.930;8.644;2023-05-07T14:14:43;20.70;99.90
7129;DHT22;3606;52.930;8.644;2023-05-07T14:17:08;19.70;99.90
7129;DHT22;3606;52.930;8.644;2023-05-07T14:19:34;19.30;1.00
7129;DHT22;3606;52.930;8.644;2023-05-07T14:21:59;19.20;99.90
7129;DHT22;3606;52.930;8.644;2023-05-07T14:24:25;18.80;1.00
7129;DHT22;3606;52.930;8.644;2023-05-07T14:26:51;18.80;99.90
7129;DHT22;3606;52.930;8.644;2023-05-07T14:29:16;18.90;99.90
7129;DHT22;3606;52.930;8.644;2023-05-07T14:31:44;19.80;1.00
7129;DHT22;3606;52.930;8.644;2023-05-07T14:34:10;21.10;99.90
7129;DHT22;3606;52.930;8.644;2023-05-07T14:36:36;21.20;99.90
7129;DHT22;3606;52.930;8.644;2023-05-07T14:39:01;21.00;99.90
7129;DHT22;3606;52.930;8.644;2023-05-07T14:41:27;20.30;99.90
7129;DHT22;3606;52.930;8.644;2023-05-07T14:43:53;20.10;99.90
7129;DHT22;3606;52.930;8.644;2023-05-07T14:46:19;20.90;99.90
7129;DHT22;3606;52.930;8.644;2023-05-07T14:48:45;21.10;99.90
7129;DHT22;3606;52.930;8.644;2023-05-07T14:51:13;20.60;99.90
7129;DHT22;3606;52.930;8.644;2023-05-07T14:53:41;19.80;99.90
7129;DHT22;3606;52.930;8.644;2023-05-07T14:56:07;19.70;99.90
7129;DHT22;3606;52.930;8.644;2023-05-07T14:58:33;19.70;99.90
7129;DHT22;3606;52.930;8.644;2023-05-07T15:00:59;19.50;99.90
7129;DHT22;3606;52.930;8.644;2023-05-07T15:03:25;19.20;99.90
7129;DHT22;3606;52.930;8.644;2023-05-07T15:05:51;19.10;1.00
7129;DHT22;3606;52.930;8.644;2023-05-07T15:08:17;20.20;99.90
7129;DHT22;3606;52.930;8.644;2023-05-07T15:10:43;21.40;99.90
7129;DHT22;3606;52.930;8.644;2023-05-07T15:13:10;22.40;99.90
7129;DHT22;3606;52.930;8.644;2023-05-07T15:15:36;22.40;99.90
7129;DHT22;3606;52.930;8.644;2023-05-07T15:18:03;22.20;99.90
7129;DHT22;3606;52.930;8.644;2023-05-07T15:20:29;21.90;99.90
7129;DHT22;3606;52.930;8.644;2023-05-07T15:22:54;21.70;99.90
7129;DHT22;3606;52.930;8.644;2023-05-07T15:25:21;20.80;99.90
7129;DHT22;3606;52.930;8.644;2023-05-07T15:27:47;20.50;99.90
7129;DHT22;3606;52.930;8.644;2023-05-07T15:30:13;20.20;99.90
7129;DHT22;3606;52.930;8.644;2023-05-07T15:32:40;19.80;99.90
7129;DHT22;3606;52.930;8.644;2023-05-07T15:35:06;19.30;99.90
7129;DHT22;3606;52.930;8.644;2023-05-07T15:37:32;18.70;27.40
7129;DHT22;3606;52.930;8.644;2023-05-07T15:39:57;18.40;1.00
7129;DHT22;3606;52.930;8.644;2023-05-07T15:42:23;18.40;1.00
7129;DHT22;3606;52.930;8.644;2023-05-07T15:44:49;18.20;1.00
7129;DHT22;3606;52.930;8.644;2023-05-07T15:47:15;18.00;1.00
7129;DHT22;3606;52.930;8.644;2023-05-07T15:49:41;17.90;1.00
7129;DHT22;3606;52.930;8.644;2023-05-07T15:52:07;17.80;1.00
7129;DHT22;3606;52.930;8.644;2023-05-07T15:54:35;17.50;1.00
7129;DHT22;3606;52.930;8.644;2023-05-07T15:57:03;17.10;1.00
7129;DHT22;3606;52.930;8.644;2023-05-07T15:59:28;16.80;1.00
7129;DHT22;3606;52.930;8.644;2023-05-07T16:01:54;16.80;1.00
7129;DHT22;3606;52.930;8.644;2023-05-07T16:04:20;16.90;1.00
7129;DHT22;3606;52.930;8.644;2023-05-07T16:06:46;16.80;1.00
7129;DHT22;3606;52.930;8.644;2023-05-07T16:09:12;16.70;1.00
7129;DHT22;3606;52.930;8.644;2023-05-07T16:11:38;16.70;1.00
7129;DHT22;3606;52.930;8.644;2023-05-07T16:14:04;16.80;1.00
7129;DHT22;3606;52.930;8.644;2023-05-07T16:16:33;16.70;1.00
7129;DHT22;3606;52.930;8.644;2023-05-07T16:18:59;16.50;1.00
7129;DHT22;3606;52.930;8.644;2023-05-07T16:21:25;16.30;1.00
7129;DHT22;3606;52.930;8.644;2023-05-07T16:23:50;16.30;14.10
7129;DHT22;3606;52.930;8.644;2023-05-07T16:26:16;16.10;1.00